Terminal Aerodrome Forecast
Issued by NWS

Home | Current Version | Previous Version | Graphics & Text | Print | Product List | Glossary On
Versions: 1 2 3 4 5 6 7 8 9 10 11 12 13 14 15 16 17 18 19
748
FTUS43 KTOP 171720
TAFMHK
TAF
KMHK 171720Z 1718/1818 30005KT P6SM FEW120
     FM180500 VRB03KT 5SM BR FEW200
     FM181400 18004KT P6SM SCT250=

USA.gov is the U.S. government's official web portal to all federal, state and local government web resources and services.